Megan T Miller — WCW9003 — position and weather

sailwx.info

Track history (hours):
 
Tides and Currents Weather Stations Pressure Air Temp Water Temp Dewpoint Dewpoint Depression Visibility Wind Speed Wind Dir Waves Ship Positions

Megan T Miller

Owner: MILLER MARINE SERVICES INC, PORT JEFFERSON, NY. More information available from US FCC via Universal Licensing System and Coast Guard Vessel Documentation Center.

Last reported at 2014-Oct-15 18:33 UTC. Time now 2014-Oct-31 13:25 UTC.
Position N 41°18' W 072°54'.
Warning: this ship's position is 15 days out of date.

Length 18 m.

MMSI: 338104509.

Date/timePositionNaut miles runAvg speedWind from/ knotsBaromVisibWave heightAir tempDewpointWater temp
2014-Oct-15 18:33N 41°18' W 072°54'8 7.3
2014-Oct-15 17:25N 41°11' W 072°59'8 8.6
2014-Oct-15 16:32N 41°06' W 073°07'10 8.9
2014-Oct-15 15:22N 40°59' W 073°17'3 1.4
2014-Oct-15 13:17N 40°57' W 073°20'0 0.1
2014-Oct-15 12:28N 40°57' W 073°20'2 2.0
2014-Oct-15 11:33N 40°55' W 073°21'0 0.0
2014-Oct-15 10:33N 40°55' W 073°21'0 0.0
2014-Oct-15 09:33N 40°55' W 073°21'0 0.0
2014-Oct-15 08:32N 40°55' W 073°21'3 3.0
2014-Oct-15 07:33N 40°58' W 073°19'9 9.2
2014-Oct-15 06:33N 41°04' W 073°10'9 9.4
2014-Oct-15 05:33N 41°10' W 073°00'8 8.2
2014-Oct-15 04:33N 41°17' W 072°55'  
Track history (hours):
 
Tides and Currents Weather Stations Pressure Air Temp Water Temp Dewpoint Dewpoint Depression Visibility Wind Speed Wind Dir Waves Ship Positions

Megan T Miller

Owner: MILLER MARINE SERVICES INC, PORT JEFFERSON, NY. More information available from US FCC via Universal Licensing System and Coast Guard Vessel Documentation Center.

Last reported at 2014-Oct-15 18:33 UTC. Time now 2014-Oct-31 13:25 UTC.
Position N 41°18' W 072°54'.
Warning: this ship's position is 15 days out of date.

Length 18 m.

MMSI: 338104509.

Date/timePositionNaut miles runAvg speedWind from/ knotsBaromVisibWave heightAir tempDewpointWater temp
2014-Oct-15 18:33N 41°18' W 072°54'8 7.3
2014-Oct-15 17:25N 41°11' W 072°59'8 8.6
2014-Oct-15 16:32N 41°06' W 073°07'10 8.9
2014-Oct-15 15:22N 40°59' W 073°17'3 1.4
2014-Oct-15 13:17N 40°57' W 073°20'0 0.1
2014-Oct-15 12:28N 40°57' W 073°20'2 2.0
2014-Oct-15 11:33N 40°55' W 073°21'0 0.0
2014-Oct-15 10:33N 40°55' W 073°21'0 0.0
2014-Oct-15 09:33N 40°55' W 073°21'0 0.0
2014-Oct-15 08:32N 40°55' W 073°21'3 3.0
2014-Oct-15 07:33N 40°58' W 073°19'9 9.2
2014-Oct-15 06:33N 41°04' W 073°10'9 9.4
2014-Oct-15 05:33N 41°10' W 073°00'8 8.2
2014-Oct-15 04:33N 41°17' W 072°55'  

Dump ship's entire track history